Time;durP1;ratioP1;P1;durP2;ratioP2;P2;SDS_P1;SDS_P2;PMS_P1;PMS_P2;Temp;Humidity;BMP_temperature;BMP_pressure;BME280_temperature;BME280_humidity;BME280_pressure;Samples;Min_cycle;Max_cycle;Signal;HPM_P1;HPM_P2
2022/10/13 00:01:52;;;;;;;9.43;6.47;;;11.30;99.90;;;;;;5009629;28;20282;-67
2022/10/13 00:04:19;;;;;;;13.38;8.35;;;11.30;99.90;;;;;;5009545;28;20728;-68
2022/10/13 00:06:45;;;;;;;12.65;7.82;;;11.30;99.90;;;;;;5009976;28;20226;-67
2022/10/13 00:09:12;;;;;;;11.90;8.10;;;11.40;99.90;;;;;;5009855;28;20238;-67
2022/10/13 00:11:40;;;;;;;17.20;8.65;;;11.30;99.90;;;;;;5009140;28;20613;-67
2022/10/13 00:14:07;;;;;;;15.27;8.55;;;11.40;99.90;;;;;;5009907;28;20235;-68
2022/10/13 00:16:34;;;;;;;12.90;8.32;;;11.40;99.90;;;;;;5009400;28;20218;-68
2022/10/13 00:19:00;;;;;;;11.90;9.05;;;11.40;99.90;;;;;;5010090;28;20207;-67
2022/10/13 00:21:28;;;;;;;14.50;9.57;;;11.40;99.90;;;;;;5008874;28;20218;-67
2022/10/13 00:23:55;;;;;;;13.75;8.52;;;11.40;99.90;;;;;;5009952;28;20278;-67
2022/10/13 00:26:24;;;;;;;9.18;7.45;;;11.50;99.90;;;;;;5009549;28;20207;-68
2022/10/13 00:28:53;;;;;;;10.63;7.22;;;11.50;99.90;;;;;;5009496;28;20234;-67
2022/10/13 00:31:22;;;;;;;16.17;8.80;;;11.50;99.90;;;;;;5009180;28;20583;-67
2022/10/13 00:33:49;;;;;;;10.55;8.07;;;11.60;99.90;;;;;;5009304;28;20214;-68
2022/10/13 00:36:17;;;;;;;11.60;8.13;;;11.60;99.90;;;;;;5009541;28;20207;-68
2022/10/13 00:38:43;;;;;;;17.15;10.27;;;11.60;99.90;;;;;;5009401;28;20199;-67
2022/10/13 00:41:10;;;;;;;14.45;9.52;;;11.60;99.90;;;;;;5009409;28;20210;-67
2022/10/13 00:43:57;;;;;;;12.35;7.80;;;11.60;99.90;;;;;;5009039;28;20566;-67
2022/10/13 00:46:26;;;;;;;11.77;8.02;;;11.60;99.90;;;;;;5009391;28;20207;-67
2022/10/13 00:48:54;;;;;;;12.35;7.25;;;11.60;99.90;;;;;;5009685;28;20234;-68
2022/10/13 00:51:25;;;;;;;12.93;8.82;;;11.60;99.90;;;;;;5008936;28;20207;-67
2022/10/13 00:53:54;;;;;;;10.05;8.07;;;11.60;99.90;;;;;;5009666;28;20207;-67
2022/10/13 00:56:23;;;;;;;10.48;7.35;;;11.60;99.90;;;;;;5009195;28;20679;-68
2022/10/13 00:58:50;;;;;;;11.07;7.47;;;11.60;99.90;;;;;;5008333;28;20211;-68
2022/10/13 01:01:18;;;;;;;11.55;8.48;;;11.60;99.90;;;;;;5008747;28;20226;-67
2022/10/13 01:03:45;;;;;;;10.40;7.53;;;11.60;99.90;;;;;;5009151;28;20214;-67
2022/10/13 01:06:13;;;;;;;13.70;8.98;;;11.60;99.90;;;;;;5009167;28;20310;-68
2022/10/13 01:08:40;;;;;;;10.30;7.50;;;11.60;99.90;;;;;;5009131;28;20230;-68
2022/10/13 01:11:34;;;;;;;11.02;8.00;;;11.60;99.90;;;;;;5009448;28;20238;-67
2022/10/13 01:14:12;;;;;;;11.48;7.93;;;11.50;99.90;;;;;;5009401;28;20233;-68
2022/10/13 01:16:46;;;;;;;10.88;8.43;;;11.50;99.90;;;;;;5012534;28;20640;-67
2022/10/13 01:19:35;;;;;;;10.48;6.55;;;11.50;99.90;;;;;;5012674;28;20206;-68
2022/10/13 01:22:13;;;;;;;15.65;8.45;;;11.40;99.90;;;;;;5012321;28;20234;-68
2022/10/13 01:24:46;;;;;;;12.00;7.85;;;11.40;99.90;;;;;;5012518;28;20223;-67
2022/10/13 01:27:28;;;;;;;11.52;7.75;;;11.40;99.90;;;;;;5012438;28;20251;-67
2022/10/13 01:32:29;;;;;;;12.10;7.57;;;11.30;99.90;;;;;;5069309;22;20229;-92
2022/10/13 01:35:02;;;;;;;11.80;8.50;;;11.30;99.90;;;;;;5053644;28;20197;-91
2022/10/13 01:37:34;;;;;;;11.88;7.65;;;11.20;99.90;;;;;;5053584;28;20209;-91
2022/10/13 01:40:06;;;;;;;9.88;7.20;;;11.20;99.90;;;;;;5053988;28;20205;-90
2022/10/13 01:42:38;;;;;;;10.77;6.82;;;11.20;99.90;;;;;;5053375;28;20216;-90
2022/10/13 01:45:07;;;;;;;8.73;6.70;;;11.20;99.90;;;;;;5054002;28;20198;-90
2022/10/13 01:47:38;;;;;;;9.95;7.32;;;11.20;99.90;;;;;;5058492;23;20198;-68
2022/10/13 01:50:07;;;;;;;9.80;7.05;;;11.20;99.90;;;;;;5051216;28;20213;-68
2022/10/13 01:52:37;;;;;;;12.77;8.32;;;11.20;99.90;;;;;;5050871;28;20214;-67
2022/10/13 01:55:08;;;;;;;7.97;6.63;;;11.20;99.90;;;;;;5052091;28;20946;-68
2022/10/13 01:57:37;;;;;;;8.55;6.40;;;11.20;99.90;;;;;;5051265;28;20210;-67
2022/10/13 02:00:08;;;;;;;10.75;6.88;;;11.20;99.90;;;;;;5051723;28;20578;-68
2022/10/13 02:02:42;;;;;;;9.40;7.18;;;11.20;99.90;;;;;;5050608;28;20201;-68
2022/10/13 02:05:17;;;;;;;12.13;8.25;;;11.20;99.90;;;;;;5051744;28;20224;-68
2022/10/13 02:07:48;;;;;;;11.07;7.20;;;11.20;99.90;;;;;;5051152;28;20221;-68
2022/10/13 02:10:20;;;;;;;10.88;7.85;;;11.20;99.90;;;;;;5051628;28;20205;-68
2022/10/13 02:12:52;;;;;;;11.63;6.78;;;11.20;99.90;;;;;;5050594;28;20213;-68
2022/10/13 02:15:24;;;;;;;10.98;7.50;;;11.20;99.90;;;;;;5051469;28;20654;-68
2022/10/13 02:17:53;;;;;;;10.23;7.57;;;11.20;99.90;;;;;;5051607;28;20208;-68
2022/10/13 02:20:21;;;;;;;11.65;8.27;;;11.20;99.90;;;;;;5051103;28;20220;-68
2022/10/13 02:22:54;;;;;;;11.48;8.02;;;11.20;99.90;;;;;;5050517;28;20201;-68
2022/10/13 02:25:21;;;;;;;15.45;8.60;;;11.20;99.90;;;;;;5051154;28;20222;-67
2022/10/13 02:27:48;;;;;;;11.35;7.82;;;11.30;99.90;;;;;;5050882;28;20209;-68
2022/10/13 02:30:21;;;;;;;15.57;9.00;;;11.30;99.90;;;;;;5051040;28;20210;-68
2022/10/13 02:32:47;;;;;;;11.88;8.48;;;11.30;99.90;;;;;;5050398;28;20620;-68
2022/10/13 02:35:16;;;;;;;13.90;8.85;;;11.40;99.90;;;;;;5051289;28;20618;-68
2022/10/13 02:37:42;;;;;;;12.77;8.18;;;11.40;99.90;;;;;;5050665;28;20214;-68
2022/10/13 02:40:10;;;;;;;14.15;8.57;;;11.40;99.90;;;;;;5051092;28;20224;-68
2022/10/13 02:42:37;;;;;;;14.27;9.55;;;11.40;99.90;;;;;;5049923;28;20214;-69
2022/10/13 02:45:04;;;;;;;13.30;8.55;;;11.50;99.90;;;;;;5051106;28;20225;-67
2022/10/13 02:47:31;;;;;;;11.43;7.68;;;11.50;99.90;;;;;;5050294;28;20205;-68
2022/10/13 02:49:58;;;;;;;13.75;7.95;;;11.50;99.90;;;;;;5050310;28;20720;-68
2022/10/13 02:52:26;;;;;;;13.73;8.35;;;11.50;99.90;;;;;;5050401;28;20213;-67
2022/10/13 02:54:53;;;;;;;13.38;8.43;;;11.50;99.90;;;;;;5050561;28;20259;-67
2022/10/13 02:57:19;;;;;;;11.77;8.38;;;11.50;99.90;;;;;;5050912;28;20206;-67
2022/10/13 02:59:46;;;;;;;12.95;8.20;;;11.60;99.90;;;;;;5049840;28;20206;-68
2022/10/13 03:02:13;;;;;;;13.05;9.00;;;11.60;99.90;;;;;;5050227;28;20205;-67
2022/10/13 03:04:40;;;;;;;14.15;7.63;;;11.60;99.90;;;;;;5050067;28;20232;-68
2022/10/13 03:07:06;;;;;;;12.45;8.15;;;11.60;99.90;;;;;;5050694;28;20221;-67
2022/10/13 03:09:35;;;;;;;13.10;8.40;;;11.60;99.90;;;;;;5050146;28;20221;-68
2022/10/13 03:12:01;;;;;;;12.68;7.95;;;11.60;99.90;;;;;;5049447;28;20205;-67
2022/10/13 03:14:28;;;;;;;14.25;8.90;;;11.60;99.90;;;;;;5050244;28;20316;-67
2022/10/13 03:16:55;;;;;;;12.30;8.60;;;11.70;99.90;;;;;;5050033;28;20209;-68
2022/10/13 03:19:22;;;;;;;10.75;7.90;;;11.70;99.90;;;;;;5050370;28;20590;-67
2022/10/13 03:21:48;;;;;;;11.32;7.40;;;11.70;99.90;;;;;;5047195;28;20212;-67
2022/10/13 03:24:15;;;;;;;12.18;7.70;;;11.70;99.90;;;;;;5043733;28;20213;-67
2022/10/13 03:26:43;;;;;;;15.48;8.20;;;11.80;99.90;;;;;;5050002;28;20572;-68
2022/10/13 03:29:13;;;;;;;10.02;7.45;;;11.70;99.90;;;;;;5049801;28;20232;-68
2022/10/13 03:31:40;;;;;;;12.48;8.38;;;11.70;99.90;;;;;;5048971;28;20206;-67
2022/10/13 03:34:07;;;;;;;13.18;7.55;;;11.70;99.90;;;;;;5049594;28;20719;-67
2022/10/13 03:36:34;;;;;;;13.20;8.68;;;11.70;99.90;;;;;;5050073;28;20212;-68
2022/10/13 03:39:00;;;;;;;10.77;8.23;;;11.70;99.90;;;;;;5048921;28;20216;-67
2022/10/13 03:41:27;;;;;;;14.55;8.63;;;11.70;99.90;;;;;;5049189;28;20249;-68
2022/10/13 03:43:55;;;;;;;9.98;8.02;;;11.70;99.90;;;;;;5049554;28;20229;-68
2022/10/13 03:46:26;;;;;;;11.93;8.20;;;11.70;99.90;;;;;;5049735;28;20998;-68
2022/10/13 03:48:53;;;;;;;11.63;7.50;;;11.70;99.90;;;;;;5049412;28;20232;-67
2022/10/13 03:51:21;;;;;;;15.90;8.32;;;11.70;99.90;;;;;;5048695;28;20689;-67
2022/10/13 03:53:49;;;;;;;14.73;7.60;;;11.80;99.90;;;;;;5049492;28;20673;-68
2022/10/13 03:56:19;;;;;;;10.52;6.70;;;11.80;99.90;;;;;;5049406;28;20214;-67
2022/10/13 03:58:46;;;;;;;14.02;8.30;;;11.80;99.90;;;;;;5049478;28;20685;-68
2022/10/13 04:01:15;;;;;;;13.23;7.32;;;11.80;99.90;;;;;;5034173;28;20209;-67
2022/10/13 04:03:42;;;;;;;8.63;6.60;;;11.80;99.90;;;;;;5027257;28;20256;-67
2022/10/13 04:06:09;;;;;;;11.50;8.10;;;11.80;99.90;;;;;;5026992;28;20788;-67
2022/10/13 04:08:37;;;;;;;10.63;7.55;;;11.80;99.90;;;;;;5027197;28;20230;-68
2022/10/13 04:11:06;;;;;;;11.27;7.90;;;11.80;99.90;;;;;;5026751;28;20202;-67
2022/10/13 04:13:33;;;;;;;11.20;7.80;;;11.90;99.90;;;;;;5030879;28;20471;-68
2022/10/13 04:16:02;;;;;;;13.43;8.95;;;11.90;99.90;;;;;;5039247;28;20200;-68
2022/10/13 04:18:30;;;;;;;11.05;8.18;;;11.90;99.90;;;;;;5037482;28;20329;-68
2022/10/13 04:20:57;;;;;;;13.68;8.15;;;11.80;99.90;;;;;;5026948;28;20214;-68
2022/10/13 04:23:24;;;;;;;9.27;7.35;;;11.80;99.90;;;;;;5025937;28;20210;-68
2022/10/13 04:25:51;;;;;;;11.85;8.00;;;11.80;99.90;;;;;;5027195;28;20790;-67
2022/10/13 04:28:18;;;;;;;10.93;7.22;;;11.80;99.90;;;;;;5027751;28;20202;-67
2022/10/13 04:30:45;;;;;;;11.00;7.32;;;11.80;99.90;;;;;;5026933;28;20213;-67
2022/10/13 04:33:11;;;;;;;14.02;8.25;;;11.80;99.90;;;;;;5025551;28;20914;-67
2022/10/13 04:35:41;;;;;;;9.90;7.85;;;11.90;99.90;;;;;;5028368;28;20222;-67
2022/10/13 04:38:08;;;;;;;9.15;6.68;;;11.80;99.90;;;;;;5028179;28;20713;-67
2022/10/13 04:40:35;;;;;;;10.48;7.78;;;11.80;99.90;;;;;;5028729;28;20346;-67
2022/10/13 04:43:02;;;;;;;11.57;7.57;;;11.90;99.90;;;;;;5027977;28;20234;-67
2022/10/13 04:45:29;;;;;;;9.93;7.13;;;11.90;99.90;;;;;;5029204;28;20233;-67
2022/10/13 04:47:56;;;;;;;11.68;7.03;;;11.80;99.90;;;;;;5029113;28;20222;-67
2022/10/13 04:50:22;;;;;;;11.68;8.00;;;11.80;99.90;;;;;;5030982;28;20576;-67
2022/10/13 04:52:50;;;;;;;10.43;7.60;;;11.80;99.90;;;;;;5032354;28;20203;-67
2022/10/13 04:55:17;;;;;;;12.02;8.10;;;11.80;99.90;;;;;;5032366;28;20626;-67
2022/10/13 04:57:44;;;;;;;12.57;7.90;;;11.80;99.90;;;;;;5033062;28;20211;-67
2022/10/13 05:00:12;;;;;;;15.18;8.82;;;11.80;99.90;;;;;;5032510;28;20214;-67
2022/10/13 05:02:38;;;;;;;10.82;6.90;;;11.70;99.90;;;;;;5032665;28;20205;-67
2022/10/13 05:05:06;;;;;;;10.88;6.63;;;11.70;99.90;;;;;;5032566;28;20230;-67
2022/10/13 05:07:33;;;;;;;9.32;7.10;;;11.70;99.90;;;;;;5034142;28;20592;-67
2022/10/13 05:10:01;;;;;;;13.27;7.32;;;11.70;99.90;;;;;;5033593;28;20222;-66
2022/10/13 05:12:28;;;;;;;10.38;7.15;;;11.70;99.90;;;;;;5033403;28;20213;-67
2022/10/13 05:14:56;;;;;;;10.02;6.93;;;11.60;99.90;;;;;;5033610;28;20223;-67
2022/10/13 05:17:22;;;;;;;9.45;6.90;;;11.60;99.90;;;;;;5033207;28;20217;-67
2022/10/13 05:19:49;;;;;;;11.52;8.60;;;11.60;99.90;;;;;;5033529;28;20202;-67
2022/10/13 05:22:16;;;;;;;21.10;7.78;;;11.50;99.90;;;;;;5032804;28;20217;-67
2022/10/13 05:24:43;;;;;;;10.60;7.68;;;11.50;99.90;;;;;;5033626;28;20238;-67
2022/10/13 05:27:12;;;;;;;14.10;8.32;;;11.50;99.90;;;;;;5033188;28;20206;-67
2022/10/13 05:29:40;;;;;;;10.38;7.72;;;11.50;99.90;;;;;;5034007;28;20229;-67
2022/10/13 05:32:07;;;;;;;10.95;7.53;;;11.40;99.90;;;;;;5032417;28;20206;-67
2022/10/13 05:34:34;;;;;;;10.82;7.70;;;11.40;99.90;;;;;;5033122;28;20222;-67
2022/10/13 05:37:01;;;;;;;13.13;8.27;;;11.40;99.90;;;;;;5032584;28;20214;-67
2022/10/13 05:39:28;;;;;;;9.35;7.25;;;11.30;99.90;;;;;;5033450;28;20199;-67
2022/10/13 05:41:54;;;;;;;10.80;7.63;;;11.30;99.90;;;;;;5032731;28;20206;-66
2022/10/13 05:44:23;;;;;;;10.35;7.55;;;11.30;99.90;;;;;;5033109;28;20230;-67
2022/10/13 05:46:50;;;;;;;14.23;7.45;;;11.30;99.90;;;;;;5032720;28;20301;-67
2022/10/13 05:49:17;;;;;;;14.23;8.05;;;11.40;99.90;;;;;;5032814;28;20234;-67
2022/10/13 05:51:47;;;;;;;12.45;8.35;;;11.40;99.90;;;;;;5032535;28;20206;-67
2022/10/13 05:54:17;;;;;;;10.45;8.25;;;11.30;99.90;;;;;;5032713;28;20222;-66
2022/10/13 05:56:49;;;;;;;10.98;7.85;;;11.40;99.90;;;;;;5032815;28;20206;-67
2022/10/13 05:59:18;;;;;;;11.95;7.65;;;11.40;99.90;;;;;;5035686;28;20198;-67
2022/10/13 06:01:47;;;;;;;16.42;8.77;;;11.40;99.90;;;;;;5042522;28;20199;-67
2022/10/13 06:04:18;;;;;;;14.38;8.15;;;11.40;99.90;;;;;;5041255;28;20566;-67
2022/10/13 06:06:45;;;;;;;15.02;9.15;;;11.40;99.90;;;;;;5042613;28;20201;-67
2022/10/13 06:09:11;;;;;;;11.20;7.50;;;11.40;99.90;;;;;;5043884;28;20222;-67
2022/10/13 06:11:38;;;;;;;12.18;8.05;;;11.40;99.90;;;;;;5032483;28;20213;-67
2022/10/13 06:14:05;;;;;;;12.73;8.18;;;11.40;99.90;;;;;;5032295;28;20249;-66
2022/10/13 06:16:34;;;;;;;12.35;8.10;;;11.40;99.90;;;;;;5032414;28;20698;-66
2022/10/13 06:19:02;;;;;;;11.60;7.95;;;11.50;99.90;;;;;;5032008;28;20210;-66
2022/10/13 06:21:28;;;;;;;8.50;6.13;;;11.50;99.90;;;;;;5032086;28;20217;-66
2022/10/13 06:23:55;;;;;;;9.10;7.53;;;11.60;99.90;;;;;;5032154;28;20627;-67
2022/10/13 06:26:22;;;;;;;9.55;7.05;;;11.80;99.90;;;;;;5031752;28;20293;-66
2022/10/13 06:28:49;;;;;;;8.10;6.23;;;12.00;99.90;;;;;;5032033;28;20211;-66
2022/10/13 06:31:15;;;;;;;12.10;7.50;;;12.10;99.90;;;;;;5031744;28;20252;-66
2022/10/13 06:33:43;;;;;;;12.95;8.23;;;12.10;99.90;;;;;;5031876;28;20210;-66
2022/10/13 06:36:11;;;;;;;13.43;8.23;;;12.10;99.90;;;;;;5031729;28;20704;-66
2022/10/13 06:38:38;;;;;;;13.55;8.15;;;12.00;99.90;;;;;;5031632;28;20609;-67
2022/10/13 06:41:05;;;;;;;8.60;6.97;;;12.00;99.90;;;;;;5031678;28;20738;-68
2022/10/13 06:43:33;;;;;;;10.98;7.18;;;12.00;99.90;;;;;;5031567;28;20219;-67
2022/10/13 06:46:00;;;;;;;12.75;7.00;;;11.90;99.90;;;;;;5032068;28;20598;-67
2022/10/13 06:48:28;;;;;;;11.13;7.40;;;11.90;99.90;;;;;;5031531;28;20221;-67
2022/10/13 06:50:54;;;;;;;11.00;7.82;;;11.90;99.90;;;;;;5031395;28;20222;-67
2022/10/13 06:53:23;;;;;;;10.32;7.57;;;11.80;99.90;;;;;;5031296;28;20214;-67
2022/10/13 06:55:49;;;;;;;9.93;7.15;;;11.80;99.90;;;;;;5031524;28;20226;-67
2022/10/13 06:58:16;;;;;;;10.00;7.82;;;11.90;99.90;;;;;;5031084;28;20202;-67
2022/10/13 07:00:43;;;;;;;12.65;7.90;;;11.90;99.90;;;;;;5031991;28;20230;-67
2022/10/13 07:03:11;;;;;;;12.88;7.95;;;11.90;99.90;;;;;;5031140;28;20210;-67
2022/10/13 07:05:37;;;;;;;10.88;7.22;;;11.90;99.90;;;;;;5036598;28;20249;-67
2022/10/13 07:08:04;;;;;;;9.75;6.88;;;11.90;99.90;;;;;;5051115;28;20216;-67
2022/10/13 07:10:33;;;;;;;9.85;6.78;;;12.00;99.90;;;;;;5051584;28;20304;-67
2022/10/13 07:12:59;;;;;;;9.57;6.70;;;12.00;99.90;;;;;;5049844;28;20590;-67
2022/10/13 07:15:26;;;;;;;11.35;7.57;;;12.00;99.90;;;;;;5051324;28;20229;-67
2022/10/13 07:17:53;;;;;;;12.20;7.85;;;12.10;99.90;;;;;;5050957;28;20209;-67
2022/10/13 07:20:20;;;;;;;9.50;6.33;;;12.00;99.90;;;;;;5051038;28;20205;-67
2022/10/13 07:22:47;;;;;;;8.23;6.35;;;12.10;99.90;;;;;;5050451;28;20834;-67
2022/10/13 07:25:14;;;;;;;9.70;7.50;;;12.10;99.90;;;;;;5050958;28;20225;-67
2022/10/13 07:27:43;;;;;;;12.35;7.05;;;12.20;99.90;;;;;;5051493;28;20202;-67
2022/10/13 07:30:10;;;;;;;11.63;7.63;;;12.20;99.90;;;;;;5050448;28;20270;-68
2022/10/13 07:32:37;;;;;;;12.20;7.57;;;12.20;99.90;;;;;;5135342;22;20613;-67
2022/10/13 07:35:05;;;;;;;10.60;6.88;;;12.20;99.90;;;;;;5069658;28;20253;-67
2022/10/13 07:37:32;;;;;;;12.10;7.13;;;12.30;99.90;;;;;;5070593;28;20680;-68
2022/10/13 07:39:59;;;;;;;10.10;7.28;;;12.30;99.90;;;;;;5069858;28;20201;-67
2022/10/13 07:42:25;;;;;;;11.90;7.90;;;12.30;99.90;;;;;;5069445;28;20714;-67
2022/10/13 07:44:53;;;;;;;12.43;7.40;;;12.40;99.90;;;;;;5069969;28;20220;-67
2022/10/13 07:47:20;;;;;;;10.00;7.60;;;12.40;99.90;;;;;;5070165;28;20594;-67
2022/10/13 07:49:47;;;;;;;9.13;6.40;;;12.40;99.90;;;;;;5066226;28;20235;-67
2022/10/13 07:52:14;;;;;;;10.93;6.32;;;12.40;99.90;;;;;;5065440;28;20220;-67
2022/10/13 07:54:41;;;;;;;11.63;6.35;;;12.50;99.90;;;;;;5066338;28;20719;-67
2022/10/13 07:57:09;;;;;;;9.35;6.95;;;12.50;99.90;;;;;;5068123;28;20216;-67
2022/10/13 07:59:36;;;;;;;9.57;6.85;;;12.60;99.90;;;;;;5066522;28;20231;-67
2022/10/13 08:02:05;;;;;;;9.53;6.10;;;12.60;99.90;;;;;;5067631;28;20212;-67
2022/10/13 08:04:33;;;;;;;12.98;6.95;;;12.80;99.90;;;;;;5068973;28;20573;-68
2022/10/13 08:07:01;;;;;;;8.75;6.18;;;12.90;99.90;;;;;;5068154;28;20213;-67
2022/10/13 08:09:28;;;;;;;8.63;6.50;;;13.10;99.90;;;;;;5068365;28;20295;-67
2022/10/13 08:11:55;;;;;;;10.77;6.03;;;13.20;99.90;;;;;;5065615;28;20566;-67
2022/10/13 08:14:22;;;;;;;8.07;6.00;;;13.20;99.90;;;;;;5064513;28;20494;-67
2022/10/13 08:16:51;;;;;;;10.63;6.80;;;13.10;99.90;;;;;;5069372;28;20209;-68
2022/10/13 08:19:20;;;;;;;11.83;6.70;;;13.20;99.90;;;;;;5069921;28;20471;-67
2022/10/13 08:21:48;;;;;;;8.87;5.80;;;13.20;99.90;;;;;;5068458;28;20459;-67
2022/10/13 08:24:16;;;;;;;9.45;6.72;;;13.20;99.90;;;;;;5071456;28;20481;-67
2022/10/13 08:26:45;;;;;;;7.90;6.13;;;13.10;99.90;;;;;;5073638;28;20266;-67
2022/10/13 08:29:13;;;;;;;10.10;6.10;;;13.10;99.90;;;;;;5073581;28;20462;-68
2022/10/13 08:31:40;;;;;;;9.95;6.47;;;13.20;99.90;;;;;;5073258;28;20989;-67
2022/10/13 08:34:06;;;;;;;8.52;6.20;;;13.30;99.90;;;;;;5073255;28;20618;-67
2022/10/13 08:36:35;;;;;;;11.17;5.80;;;13.40;99.90;;;;;;5073686;28;20212;-67
2022/10/13 08:39:02;;;;;;;13.40;5.53;;;13.60;99.90;;;;;;5073269;28;20851;-67
2022/10/13 08:41:35;;;;;;;7.53;5.40;;;13.60;99.90;;;;;;5073018;28;20462;-67
2022/10/13 08:44:06;;;;;;;11.47;6.20;;;13.80;99.90;;;;;;5072986;28;20483;-67
2022/10/13 08:46:39;;;;;;;8.77;5.80;;;13.90;99.90;;;;;;5070865;28;20466;-67
2022/10/13 08:49:07;;;;;;;8.57;5.53;;;14.00;99.90;;;;;;5071686;28;20470;-68
2022/10/13 08:51:35;;;;;;;7.37;5.77;;;14.10;99.90;;;;;;5071912;28;20551;-67
2022/10/13 08:54:04;;;;;;;6.60;5.03;;;14.10;99.90;;;;;;5071237;28;20483;-67
2022/10/13 08:56:34;;;;;;;6.70;5.50;;;14.20;99.90;;;;;;5072888;28;20554;-67
2022/10/13 08:59:03;;;;;;;6.77;4.97;;;14.20;99.90;;;;;;5072538;28;20835;-68
2022/10/13 09:01:32;;;;;;;8.23;4.80;;;14.10;99.90;;;;;;5072173;28;20459;-67
2022/10/13 09:04:14;;;;;;;7.90;5.20;;;14.20;99.90;;;;;;5071607;28;20483;-68
2022/10/13 09:06:48;;;;;;;10.33;5.00;;;14.10;99.90;;;;;;5072715;28;20470;-67
2022/10/13 09:09:16;;;;;;;7.77;5.00;;;14.20;99.90;;;;;;5071642;28;20462;-67
2022/10/13 09:11:45;;;;;;;8.87;5.67;;;14.20;99.90;;;;;;5071486;28;20483;-67
2022/10/13 09:14:19;;;;;;;7.30;4.20;;;14.30;99.90;;;;;;5071683;28;20483;-67
2022/10/13 09:16:46;;;;;;;7.30;6.13;;;14.40;99.90;;;;;;5071419;28;20971;-68
2022/10/13 09:19:20;;;;;;;6.57;4.50;;;14.40;99.90;;;;;;5071560;28;20462;-67
2022/10/13 09:21:48;;;;;;;7.90;4.50;;;14.60;99.90;;;;;;5071184;28;20463;-67
2022/10/13 09:24:16;;;;;;;7.03;4.73;;;14.70;99.90;;;;;;5071453;28;20479;-67
2022/10/13 09:26:44;;;;;;;6.03;4.30;;;14.70;99.90;;;;;;5071813;28;20470;-67
2022/10/13 09:29:16;;;;;;;8.10;5.10;;;14.50;99.90;;;;;;5071089;28;20474;-68
2022/10/13 09:31:43;;;;;;;7.37;4.93;;;14.50;99.90;;;;;;5070876;28;20479;-67
2022/10/13 09:34:16;;;;;;;5.20;4.50;;;14.50;99.90;;;;;;5070808;28;20479;-67
2022/10/13 09:37:01;;;;;;;4.37;3.97;;;14.40;99.90;;;;;;5071017;28;20463;-68
2022/10/13 09:39:29;;;;;;;6.33;4.43;;;14.30;99.90;;;;;;5071881;28;20471;-67
2022/10/13 09:42:21;;;;;;;5.30;4.53;;;14.30;99.90;;;;;;5070359;28;20467;-67
2022/10/13 09:44:57;;;;;;;7.67;5.07;;;14.30;99.90;;;;;;5071102;28;21006;-67
2022/10/13 09:47:25;;;;;;;6.83;4.50;;;14.20;99.90;;;;;;5071148;28;20538;-67
2022/10/13 09:50:01;;;;;;;7.73;4.63;;;14.20;99.90;;;;;;5069553;28;20518;-67
2022/10/13 09:52:29;;;;;;;6.07;4.70;;;14.20;99.90;;;;;;5071078;28;20522;-67
2022/10/13 09:54:59;;;;;;;6.23;4.50;;;14.20;99.90;;;;;;5068701;28;20497;-67
2022/10/13 09:57:34;;;;;;;5.40;4.53;;;14.10;99.90;;;;;;5071294;28;21144;-67
2022/10/13 10:00:10;;;;;;;6.07;4.30;;;14.30;99.90;;;;;;5070777;28;20481;-67
2022/10/13 10:02:41;;;;;;;6.90;4.40;;;14.30;99.90;;;;;;5070416;28;20470;-67
2022/10/13 10:05:23;;;;;;;5.33;4.83;;;14.40;99.90;;;;;;5065733;28;20483;-67
2022/10/13 10:07:52;;;;;;;6.40;5.03;;;14.40;99.90;;;;;;5070332;28;20467;-67
2022/10/13 10:10:32;;;;;;;7.70;5.13;;;14.40;99.90;;;;;;5070947;28;20490;-67
2022/10/13 10:12:59;;;;;;;6.43;5.03;;;14.30;99.90;;;;;;5070689;28;20455;-67
2022/10/13 10:15:32;;;;;;;4.90;4.10;;;14.40;99.90;;;;;;5070830;28;20534;-68
2022/10/13 10:18:06;;;;;;;7.93;4.80;;;14.40;99.90;;;;;;5071403;28;20470;-68
2022/10/13 10:20:54;;;;;;;9.27;4.87;;;14.40;99.90;;;;;;5071576;28;20486;-67
2022/10/13 10:23:36;;;;;;;6.93;4.87;;;14.40;99.90;;;;;;5070866;28;20467;-67
2022/10/13 10:26:11;;;;;;;8.63;5.00;;;14.40;99.90;;;;;;5070844;28;20466;-67
2022/10/13 10:28:54;;;;;;;5.87;4.77;;;14.40;99.90;;;;;;5071333;28;20469;-67
2022/10/13 10:31:30;;;;;;;12.57;4.57;;;14.40;99.90;;;;;;5070254;28;20486;-67
2022/10/13 10:34:10;;;;;;;6.20;4.50;;;14.40;99.90;;;;;;5070851;28;20552;-67
2022/10/13 10:36:45;;;;;;;7.20;5.20;;;14.30;99.90;;;;;;5071365;28;20967;-67
2022/10/13 10:39:23;;;;;;;6.80;4.93;;;14.20;99.90;;;;;;5070540;28;20462;-67
2022/10/13 10:41:57;;;;;;;5.67;4.60;;;14.30;99.90;;;;;;5070362;28;20547;-67
2022/10/13 10:44:30;;;;;;;5.63;4.27;;;14.30;99.90;;;;;;5070500;28;20475;-67
2022/10/13 10:47:01;;;;;;;7.50;4.60;;;14.30;99.90;;;;;;5070737;28;20463;-67
2022/10/13 10:49:31;;;;;;;6.70;4.00;;;14.40;99.90;;;;;;5070810;28;20525;-67
2022/10/13 10:51:59;;;;;;;5.17;4.37;;;14.40;99.90;;;;;;5070120;28;20483;-67
2022/10/13 10:54:37;;;;;;;5.53;4.10;;;14.40;99.90;;;;;;5070774;28;20483;-67
2022/10/13 10:57:11;;;;;;;5.73;4.40;;;14.50;99.90;;;;;;5070256;28;20470;-67
2022/10/13 10:59:49;;;;;;;9.63;5.40;;;14.60;99.90;;;;;;5070673;28;20466;-67
2022/10/13 11:02:34;;;;;;;7.53;4.70;;;14.60;99.90;;;;;;5069951;28;20462;-66
2022/10/13 11:05:01;;;;;;;5.60;4.57;;;14.70;99.90;;;;;;5070639;28;20483;-66
2022/10/13 11:07:59;;;;;;;6.00;4.30;;;14.80;99.90;;;;;;5070593;28;20470;-66
2022/10/13 11:10:29;;;;;;;7.83;4.80;;;14.90;99.90;;;;;;5070354;28;20546;-66
2022/10/13 11:13:26;;;;;;;5.97;4.30;;;14.90;99.90;;;;;;5070074;28;20487;-66
2022/10/13 11:15:54;;;;;;;5.10;3.97;;;14.90;99.90;;;;;;5069953;28;20502;-66
2022/10/13 11:18:57;;;;;;;4.53;3.60;;;15.00;99.90;;;;;;5070261;28;20463;-65
2022/10/13 11:21:24;;;;;;;7.50;4.30;;;15.00;99.90;;;;;;5069543;28;20495;-66
2022/10/13 11:23:51;;;;;;;7.60;4.10;;;15.10;99.90;;;;;;5070305;28;20463;-66
2022/10/13 11:26:32;;;;;;;6.03;4.07;;;15.20;99.90;;;;;;5069948;28;20462;-66
2022/10/13 11:28:59;;;;;;;5.93;4.00;;;15.20;99.90;;;;;;5070379;28;20970;-66
2022/10/13 11:31:46;;;;;;;4.53;3.57;;;15.20;99.90;;;;;;5069076;28;20506;-66
2022/10/13 11:34:27;;;;;;;7.70;4.27;;;15.30;99.90;;;;;;5069917;28;20479;-66
2022/10/13 11:36:59;;;;;;;7.13;3.97;;;15.30;99.90;;;;;;5070150;28;20524;-66
2022/10/13 11:40:12;;;;;;;4.50;4.07;;;15.40;99.90;;;;;;5069658;28;20471;-66
2022/10/13 11:43:22;;;;;;;5.67;4.13;;;15.40;99.90;;;;;;5010724;28;20478;-66
2022/10/13 11:46:01;;;;;;;4.70;3.80;;;15.40;99.90;;;;;;5070191;28;20658;-66
2022/10/13 11:48:56;;;;;;;8.90;4.17;;;15.40;99.90;;;;;;5069479;28;20466;-66
2022/10/13 11:51:31;;;;;;;4.40;3.73;;;15.40;99.90;;;;;;5069030;28;20486;-66
2022/10/13 11:54:11;;;;;;;6.07;3.63;;;15.50;99.90;;;;;;5070134;28;20479;-66
2022/10/13 11:56:46;;;;;;;4.27;3.87;;;15.50;99.90;;;;;;5070141;28;20524;-66
2022/10/13 11:59:23;;;;;;;4.57;4.10;;;15.50;99.90;;;;;;5069392;28;20463;-66
2022/10/13 12:01:54;;;;;;;7.80;4.00;;;15.50;99.90;;;;;;5069429;28;20458;-66
2022/10/13 12:04:22;;;;;;;6.60;3.77;;;15.50;99.90;;;;;;5069458;28;20923;-67
2022/10/13 12:06:56;;;;;;;4.73;3.90;;;15.50;99.90;;;;;;5070023;28;20464;-66
2022/10/13 12:09:23;;;;;;;6.47;3.67;;;15.50;99.90;;;;;;5069665;28;20459;-66
2022/10/13 12:11:57;;;;;;;7.97;3.67;;;15.50;99.90;;;;;;5069279;28;20533;-66
2022/10/13 12:14:31;;;;;;;3.90;3.30;;;15.50;99.90;;;;;;5069118;28;20483;-66
2022/10/13 12:16:59;;;;;;;3.83;3.53;;;15.50;99.90;;;;;;5069790;28;20521;-66
2022/10/13 12:19:28;;;;;;;4.47;3.90;;;15.50;99.90;;;;;;5069026;28;20467;-66
2022/10/13 12:21:57;;;;;;;4.80;3.93;;;15.50;99.90;;;;;;5069205;28;20459;-66
2022/10/13 12:24:26;;;;;;;4.70;3.67;;;15.70;99.90;;;;;;5069252;28;20487;-66
2022/10/13 12:26:53;;;;;;;4.53;3.77;;;15.90;99.90;;;;;;5069720;28;20458;-66
2022/10/13 12:29:25;;;;;;;4.37;3.60;;;16.20;99.90;;;;;;5069054;28;20836;-66
2022/10/13 12:31:52;;;;;;;5.07;3.90;;;16.40;99.90;;;;;;5069200;28;20847;-66
2022/10/13 12:34:23;;;;;;;7.23;3.47;;;16.40;99.90;;;;;;5069295;28;20493;-66
2022/10/13 12:36:57;;;;;;;4.20;3.60;;;16.40;99.90;;;;;;5069740;28;20845;-66
2022/10/13 12:39:25;;;;;;;5.33;3.70;;;16.40;99.90;;;;;;5068917;28;20473;-65
2022/10/13 12:41:54;;;;;;;5.10;4.00;;;16.30;99.90;;;;;;5069136;28;20459;-66
2022/10/13 12:44:23;;;;;;;10.90;4.80;;;16.40;99.90;;;;;;5068944;28;20518;-66
2022/10/13 12:46:55;;;;;;;3.57;3.07;;;16.60;99.90;;;;;;5069559;28;20958;-65
2022/10/13 12:49:24;;;;;;;4.10;3.30;;;16.70;99.90;;;;;;5069198;28;20462;-65
2022/10/13 12:51:54;;;;;;;10.73;3.40;;;16.80;99.90;;;;;;5069018;28;20483;-66
2022/10/13 12:54:27;;;;;;;6.50;3.50;;;16.80;99.90;;;;;;5068978;28;20482;-65
2022/10/13 12:56:57;;;;;;;3.73;3.40;;;16.80;99.90;;;;;;5069489;28;20982;-66
2022/10/13 12:59:26;;;;;;;5.50;3.97;;;16.80;99.90;;;;;;5068514;28;20467;-66